createdAt,value
2018-07-10T00:00:30.421Z,0.00
2018-07-10T00:01:14.989Z,0.00
2018-07-10T00:02:35.988Z,0.00
2018-07-10T00:03:15.490Z,0.00
2018-07-10T00:04:17.488Z,0.00
2018-07-10T00:05:15.489Z,0.00
2018-07-10T00:06:15.488Z,0.00
2018-07-10T00:07:21.988Z,0.00
2018-07-10T00:08:36.236Z,0.00
2018-07-10T00:09:15.988Z,0.00
2018-07-10T00:10:15.463Z,0.00
2018-07-10T00:11:22.495Z,0.00
2018-07-10T00:12:37.489Z,0.00
2018-07-10T00:13:16.489Z,0.00
2018-07-10T00:14:16.490Z,0.00
2018-07-10T00:15:16.988Z,0.00
2018-07-10T00:16:16.988Z,0.00
2018-07-10T00:17:16.339Z,0.00
2018-07-10T00:18:19.420Z,0.00
2018-07-10T00:19:17.488Z,0.00
2018-07-10T00:20:17.488Z,0.00
2018-07-10T00:21:17.488Z,0.00
2018-07-10T00:22:17.489Z,0.00
2018-07-10T00:23:32.007Z,0.00
2018-07-10T00:24:17.996Z,0.00
2018-07-10T00:25:38.995Z,0.00
2018-07-10T00:26:19.921Z,0.00
2018-07-10T00:30:21.169Z,0.00
2018-07-10T00:31:20.525Z,0.00
2018-07-10T00:32:22.170Z,0.00
2018-07-10T00:34:54.919Z,0.00
2018-07-10T00:35:54.868Z,0.00
2018-07-10T00:36:53.922Z,0.00
2018-07-10T00:37:53.421Z,0.00
2018-07-10T00:40:24.799Z,0.00
2018-07-10T00:41:24.805Z,0.00
2018-07-10T00:42:24.806Z,0.00
2018-07-10T00:43:25.305Z,0.00
2018-07-10T00:44:25.309Z,0.00
2018-07-10T00:45:40.776Z,0.00
2018-07-10T00:47:56.914Z,0.00
2018-07-10T00:48:57.854Z,0.00
2018-07-10T00:49:56.921Z,0.00
2018-07-10T00:50:56.921Z,0.00
2018-07-10T00:51:59.422Z,0.00
2018-07-10T00:52:57.420Z,0.00
2018-07-10T00:53:57.421Z,0.00
2018-07-10T00:54:57.434Z,0.00
2018-07-10T00:57:29.176Z,0.00
2018-07-10T00:58:31.184Z,0.00
2018-07-10T00:59:29.184Z,0.00
2018-07-10T01:00:28.785Z,0.00
2018-07-10T01:01:29.691Z,0.00
2018-07-10T01:02:29.684Z,0.00
2018-07-10T01:03:29.684Z,0.00
2018-07-10T01:04:30.188Z,0.00
2018-07-10T01:05:30.187Z,0.00
2018-07-10T01:06:30.182Z,0.00
2018-07-10T01:07:32.151Z,0.00
2018-07-10T01:08:36.682Z,0.00
2018-07-10T01:09:29.938Z,0.00
2018-07-10T01:10:30.684Z,0.00
2018-07-10T01:11:30.163Z,0.00
2018-07-10T01:12:30.260Z,0.00
2018-07-10T01:13:31.184Z,0.00
2018-07-10T01:14:52.184Z,0.00
2018-07-10T01:15:52.184Z,0.00
2018-07-10T01:16:52.184Z,0.00
2018-07-10T01:17:32.683Z,0.00
2018-07-10T01:18:31.685Z,0.00
2018-07-10T01:19:31.684Z,0.00
2018-07-10T01:20:36.116Z,0.00
2018-07-10T01:21:34.149Z,0.00
2018-07-10T01:24:25.963Z,0.00
2018-07-10T01:25:25.462Z,0.00
2018-07-10T01:26:25.030Z,0.00
2018-07-10T01:27:06.032Z,0.00
2018-07-10T01:28:07.463Z,0.00
2018-07-10T01:29:04.091Z,0.00
2018-07-10T01:30:04.028Z,0.00
2018-07-10T01:31:04.037Z,0.00
2018-07-10T01:32:05.962Z,0.00
2018-07-10T01:33:04.531Z,0.00
2018-07-10T01:34:04.533Z,0.00
2018-07-10T01:35:04.541Z,0.00
2018-07-10T01:37:36.336Z,0.00
2018-07-10T01:38:36.344Z,0.00
2018-07-10T01:39:36.347Z,0.00
2018-07-10T01:40:36.841Z,0.00
2018-07-10T01:41:36.840Z,0.00
2018-07-10T01:42:57.840Z,0.00
2018-07-10T01:43:36.320Z,0.00
2018-07-10T01:44:58.340Z,0.00
2018-07-10T01:45:37.344Z,0.00
2018-07-10T01:46:38.344Z,0.00
2018-07-10T01:47:38.339Z,0.00
2018-07-10T01:48:36.935Z,0.00
2018-07-10T01:49:37.841Z,0.00
2018-07-10T01:50:37.840Z,0.00
2018-07-10T01:51:37.334Z,0.00
2018-07-10T01:53:01.342Z,0.00
2018-07-10T01:53:37.578Z,0.00
2018-07-10T01:54:59.342Z,0.00
2018-07-10T01:55:38.343Z,0.00
2018-07-10T01:56:40.841Z,0.00
2018-07-10T01:59:11.665Z,0.00
2018-07-10T02:00:37.232Z,0.00
2018-07-10T02:02:41.857Z,0.00
2018-07-10T02:05:13.353Z,0.00
2018-07-10T02:06:13.365Z,0.00
2018-07-10T02:07:13.362Z,0.00
2018-07-10T02:08:16.292Z,0.00
2018-07-10T02:09:15.860Z,0.00
2018-07-10T02:10:13.860Z,0.00
2018-07-10T02:11:13.952Z,0.00
2018-07-10T02:12:35.357Z,0.00
2018-07-10T02:13:14.364Z,0.00
2018-07-10T02:14:15.792Z,0.00
2018-07-10T02:15:14.364Z,0.00
2018-07-10T02:16:14.867Z,0.00
2018-07-10T02:18:46.256Z,0.00
2018-07-10T02:21:17.750Z,0.00
2018-07-10T02:22:40.235Z,0.00
2018-07-10T02:23:17.755Z,0.00
2018-07-10T02:25:49.534Z,0.00
2018-07-10T02:27:10.541Z,0.00
2018-07-10T02:27:49.533Z,0.00
2018-07-10T02:28:49.132Z,0.00
2018-07-10T02:29:52.033Z,0.00
2018-07-10T02:30:50.033Z,0.00
2018-07-10T02:32:11.034Z,0.00
2018-07-10T02:33:11.530Z,0.00
2018-07-10T02:33:50.527Z,0.00
2018-07-10T02:34:50.536Z,0.00
2018-07-10T02:35:50.560Z,0.00
2018-07-10T02:38:22.280Z,0.00
2018-07-10T02:39:21.634Z,0.00
2018-07-10T02:40:22.284Z,0.00
2018-07-10T02:41:26.216Z,0.00
2018-07-10T02:42:36.784Z,0.00
2018-07-10T02:43:22.139Z,0.00
2018-07-10T02:44:22.826Z,0.00
2018-07-10T02:45:23.317Z,0.00
2018-07-10T02:46:43.419Z,0.00
2018-07-10T02:47:22.513Z,0.00
2018-07-10T02:48:23.316Z,0.00
2018-07-10T02:49:22.666Z,0.00
2018-07-10T02:50:44.284Z,0.00
2018-07-10T02:51:23.785Z,0.00
2018-07-10T02:53:55.186Z,0.00
2018-07-10T02:54:55.191Z,4.00
2018-07-10T02:55:55.191Z,4.00
2018-07-10T02:56:55.691Z,0.00
2018-07-10T02:57:55.691Z,0.00
2018-07-10T02:58:56.690Z,0.00
2018-07-10T02:59:57.692Z,4.00
2018-07-10T03:02:49.887Z,4.00
2018-07-10T03:03:48.457Z,4.00
2018-07-10T03:04:27.451Z,4.00
2018-07-10T03:06:59.208Z,4.00
2018-07-10T03:08:01.216Z,8.00
2018-07-10T03:08:58.737Z,12.00
2018-07-10T03:10:28.149Z,12.00
2018-07-10T03:10:59.716Z,8.00
2018-07-10T03:12:05.716Z,12.00
2018-07-10T03:12:59.716Z,12.00
2018-07-10T03:14:00.215Z,16.00
2018-07-10T03:15:23.148Z,12.00
2018-07-10T03:16:22.668Z,16.00
2018-07-10T03:16:59.645Z,16.00
2018-07-10T03:18:02.731Z,20.00
2018-07-10T03:18:59.833Z,20.00
2018-07-10T03:20:00.722Z,24.00
2018-07-10T03:21:00.717Z,28.00
2018-07-10T03:22:00.721Z,36.00
2018-07-10T03:23:08.215Z,32.00
2018-07-10T03:25:32.584Z,32.00
2018-07-10T03:26:37.018Z,40.00
2018-07-10T03:27:32.586Z,40.00
2018-07-10T03:28:33.099Z,40.00
2018-07-10T03:29:54.085Z,48.00
2018-07-10T03:30:34.555Z,48.00
2018-07-10T03:31:33.086Z,48.00
2018-07-10T03:34:07.794Z,48.00
2018-07-10T03:35:04.860Z,44.00
2018-07-10T03:36:05.362Z,48.00
2018-07-10T03:37:05.360Z,52.00
2018-07-10T03:38:05.360Z,56.00
2018-07-10T03:39:05.367Z,56.00
2018-07-10T03:40:05.860Z,64.00
2018-07-10T03:41:05.861Z,68.00
2018-07-10T03:42:05.860Z,80.00
2018-07-10T03:43:05.867Z,88.00
2018-07-10T03:44:07.793Z,92.00
2018-07-10T03:45:12.794Z,80.00
2018-07-10T03:46:06.389Z,80.00
2018-07-10T03:47:05.828Z,84.00
2018-07-10T03:49:38.066Z,92.00
2018-07-10T03:50:37.413Z,88.00
2018-07-10T03:51:38.078Z,88.00
2018-07-10T03:52:38.570Z,100.00
2018-07-10T03:53:38.593Z,96.00
2018-07-10T03:54:38.571Z,96.00
2018-07-10T03:55:59.573Z,92.00
2018-07-10T03:57:06.070Z,96.00
2018-07-10T03:57:39.077Z,112.00
2018-07-10T03:58:39.070Z,136.00
2018-07-10T03:59:39.071Z,172.00
2018-07-10T04:04:03.260Z,228.00
2018-07-10T04:04:42.267Z,228.00
2018-07-10T04:05:48.270Z,224.00
2018-07-10T04:07:05.765Z,216.00
2018-07-10T04:08:02.975Z,200.00
2018-07-10T04:08:42.779Z,188.00
2018-07-10T04:09:43.772Z,176.00
2018-07-10T04:10:42.791Z,160.00
2018-07-10T04:12:05.200Z,148.00
2018-07-10T04:13:04.271Z,148.00
2018-07-10T04:14:04.267Z,164.00
2018-07-10T04:14:43.267Z,180.00
2018-07-10T04:16:05.699Z,176.00
2018-07-10T04:16:44.765Z,172.00
2018-07-10T04:17:45.214Z,184.00
2018-07-10T04:18:43.767Z,184.00
2018-07-10T04:19:43.767Z,180.00
2018-07-10T04:22:38.450Z,212.00
2018-07-10T04:23:18.518Z,244.00
2018-07-10T04:26:01.401Z,260.00
2018-07-10T04:26:47.399Z,264.00
2018-07-10T04:32:21.895Z,408.00
2018-07-10T04:33:21.902Z,448.00
2018-07-10T04:34:21.899Z,512.00
2018-07-10T04:35:21.501Z,568.00
2018-07-10T04:39:25.164Z,692.00
2018-07-10T04:40:25.171Z,724.00
2018-07-10T04:41:25.174Z,792.00
2018-07-10T04:42:25.741Z,820.00
2018-07-10T04:43:25.671Z,820.00
2018-07-10T04:44:25.677Z,788.00
2018-07-10T04:45:25.736Z,816.00
2018-07-10T04:46:28.126Z,832.00
2018-07-10T04:47:26.171Z,896.00
2018-07-10T04:48:25.394Z,940.00
2018-07-10T04:49:26.233Z,976.00
2018-07-10T04:50:32.103Z,996.00
2018-07-10T04:52:57.913Z,1020.00
2018-07-10T04:53:57.924Z,1024.00
2018-07-10T04:54:57.923Z,1028.00
2018-07-10T04:55:58.423Z,1012.00
2018-07-10T04:56:58.424Z,1044.00
2018-07-10T04:57:58.424Z,1104.00
2018-07-10T04:58:58.425Z,1164.00
2018-07-10T04:59:58.024Z,1196.00
2018-07-10T05:02:44.315Z,1188.00
2018-07-10T05:03:36.316Z,1220.00
2018-07-10T05:04:30.315Z,1272.00
2018-07-10T05:05:30.829Z,1304.00
2018-07-10T05:06:32.815Z,1340.00
2018-07-10T05:07:32.747Z,1396.00
2018-07-10T05:08:51.815Z,1432.00
2018-07-10T05:09:48.250Z,1420.00
2018-07-10T05:10:31.318Z,1416.00
2018-07-10T05:11:32.768Z,1432.00
2018-07-10T05:12:32.796Z,1516.00
2018-07-10T05:13:54.747Z,1532.00
2018-07-10T05:14:52.816Z,1524.00
2018-07-10T05:15:52.852Z,1548.00
2018-07-10T05:16:52.864Z,1652.00
2018-07-10T05:17:32.805Z,1536.00
2018-07-10T05:18:31.499Z,1632.00
2018-07-10T05:19:53.314Z,1532.00
2018-07-10T05:20:32.316Z,1532.00
2018-07-10T05:21:38.316Z,1548.00
2018-07-10T05:25:35.524Z,1656.00
2018-07-10T05:26:35.533Z,1724.00
2018-07-10T05:27:35.529Z,1700.00
2018-07-10T05:28:42.093Z,1712.00
2018-07-10T05:29:36.033Z,1696.00
2018-07-10T05:30:57.031Z,1644.00
2018-07-10T05:31:36.135Z,1732.00
2018-07-10T05:35:39.233Z,1848.00
2018-07-10T05:36:38.582Z,1796.00
2018-07-10T05:37:38.684Z,1804.00
2018-07-10T05:38:53.740Z,1780.00
2018-07-10T05:41:11.004Z,1716.00
2018-07-10T05:42:12.437Z,1728.00
2018-07-10T05:43:10.481Z,1796.00
2018-07-10T05:44:32.505Z,1808.00
2018-07-10T05:45:11.504Z,1800.00
2018-07-10T05:46:11.509Z,1764.00
2018-07-10T05:47:11.503Z,1752.00
2018-07-10T05:48:12.008Z,1756.00
2018-07-10T05:49:12.006Z,1788.00
2018-07-10T05:50:12.005Z,1784.00
2018-07-10T05:51:12.005Z,1800.00
2018-07-10T05:52:14.505Z,1852.00
2018-07-10T05:54:46.810Z,1860.00
2018-07-10T05:56:04.877Z,1944.00
2018-07-10T05:56:43.355Z,2004.00
2018-07-10T05:58:05.378Z,2052.00
2018-07-10T06:00:15.751Z,2172.00
2018-07-10T06:01:15.779Z,2104.00
2018-07-10T06:02:15.770Z,2040.00
2018-07-10T06:03:36.374Z,1948.00
2018-07-10T06:04:16.258Z,1816.00
2018-07-10T06:05:16.258Z,1696.00
2018-07-10T06:06:16.258Z,1752.00
2018-07-10T06:07:22.770Z,1972.00
2018-07-10T06:08:36.993Z,2104.00
2018-07-10T06:09:16.759Z,2088.00
2018-07-10T06:10:37.761Z,1968.00
2018-07-10T06:11:23.258Z,2004.00
2018-07-10T06:12:39.253Z,1992.00
2018-07-10T06:13:17.258Z,1900.00
2018-07-10T06:14:18.733Z,2060.00
2018-07-10T06:15:17.816Z,2184.00
2018-07-10T06:16:17.775Z,2436.00
2018-07-10T06:17:17.774Z,2524.00
2018-07-10T06:18:17.767Z,2588.00
2018-07-10T06:19:20.259Z,2696.00
2018-07-10T06:20:17.495Z,2768.00
2018-07-10T06:21:38.575Z,2888.00
2018-07-10T06:22:18.298Z,2936.00
2018-07-10T06:23:18.254Z,3004.00
2018-07-10T06:24:18.760Z,2940.00
2018-07-10T06:26:51.114Z,2564.00
2018-07-10T06:27:51.623Z,2496.00
2018-07-10T06:28:52.114Z,2484.00
2018-07-10T06:29:51.663Z,2464.00
2018-07-10T06:31:10.879Z,2444.00
2018-07-10T06:31:56.683Z,2312.00
2018-07-10T06:32:53.710Z,2164.00
2018-07-10T06:33:50.682Z,2000.00
2018-07-10T06:35:05.207Z,1888.00
2018-07-10T06:35:52.667Z,1912.00
2018-07-10T06:36:53.184Z,1868.00
2018-07-10T06:37:51.196Z,1892.00
2018-07-10T06:40:22.941Z,1716.00
2018-07-10T06:41:22.946Z,1624.00
2018-07-10T06:42:22.936Z,1576.00
2018-07-10T06:43:24.369Z,1536.00
2018-07-10T06:44:22.667Z,1456.00
2018-07-10T06:45:23.461Z,1500.00
2018-07-10T06:46:23.436Z,1568.00
2018-07-10T06:47:23.936Z,1596.00
2018-07-10T06:48:37.996Z,1580.00
2018-07-10T06:49:23.935Z,1660.00
2018-07-10T06:50:23.442Z,1748.00
2018-07-10T06:51:24.441Z,1784.00
2018-07-10T06:52:24.485Z,2004.00
2018-07-10T06:53:24.888Z,2268.00
2018-07-10T06:54:23.923Z,2464.00
2018-07-10T06:55:24.032Z,2752.00
2018-07-10T06:56:26.405Z,3016.00
2018-07-10T06:57:24.936Z,3196.00
2018-07-10T06:59:56.805Z,2724.00
2018-07-10T07:01:02.589Z,2308.00
2018-07-10T07:01:56.993Z,2440.00
2018-07-10T07:02:57.093Z,2064.00
2018-07-10T07:03:57.091Z,1936.00
2018-07-10T07:04:57.147Z,1516.00
2018-07-10T07:05:57.088Z,1572.00
2018-07-10T07:06:57.089Z,1316.00
2018-07-10T07:08:11.589Z,1228.00
2018-07-10T07:10:49.994Z,1208.00
2018-07-10T07:11:29.001Z,1464.00
2018-07-10T07:12:28.593Z,1588.00
2018-07-10T07:13:31.492Z,1724.00
2018-07-10T07:16:25.472Z,1748.00
2018-07-10T07:17:21.439Z,1776.00
2018-07-10T07:18:24.034Z,1760.00
2018-07-10T07:19:01.536Z,1800.00
2018-07-10T07:20:01.528Z,1688.00
2018-07-10T07:21:22.536Z,2020.00
2018-07-10T07:22:01.551Z,2048.00
2018-07-10T07:23:23.041Z,2172.00
2018-07-10T07:24:24.503Z,1732.00
2018-07-10T07:25:01.374Z,1928.00
2018-07-10T07:26:01.469Z,1880.00
2018-07-10T07:27:04.536Z,2376.00
2018-07-10T07:28:23.556Z,1884.00
2018-07-10T07:29:23.534Z,2304.00
2018-07-10T07:30:01.894Z,2208.00
2018-07-10T07:31:23.537Z,2132.00
2018-07-10T07:32:24.034Z,2172.00
2018-07-10T07:33:24.032Z,2224.00
2018-07-10T07:34:03.035Z,2268.00
2018-07-10T07:35:23.498Z,2388.00
2018-07-10T07:37:34.782Z,2796.00
2018-07-10T07:38:34.784Z,2868.00
2018-07-10T07:39:34.784Z,2960.00
2018-07-10T07:42:05.808Z,1772.00
2018-07-10T07:44:38.053Z,1932.00
2018-07-10T07:45:38.056Z,1956.00
2018-07-10T07:46:40.065Z,2064.00
2018-07-10T07:47:38.561Z,1912.00
2018-07-10T07:57:16.188Z,2672.00
2018-07-10T07:59:16.052Z,2640.00
2018-07-10T08:00:16.064Z,2656.00
2018-07-10T08:01:16.051Z,2632.00
2018-07-10T08:02:16.051Z,2640.00
2018-07-10T08:03:16.551Z,2660.00
2018-07-10T08:04:28.489Z,2664.00
2018-07-10T08:05:16.380Z,2688.00
2018-07-10T08:06:16.736Z,2668.00
2018-07-10T08:07:17.055Z,2656.00
2018-07-10T08:08:19.986Z,2640.00
2018-07-10T08:09:17.086Z,2644.00
2018-07-10T08:10:17.987Z,2684.00
2018-07-10T08:13:17.361Z,2696.00
2018-07-10T08:14:17.551Z,2672.00
2018-07-10T08:19:52.277Z,1848.00
2018-07-10T08:22:47.991Z,3612.00
2018-07-10T08:23:24.352Z,3812.00
2018-07-10T08:28:49.079Z,5572.00
2018-07-10T08:29:27.500Z,5384.00
2018-07-10T08:30:50.363Z,4748.00
2018-07-10T08:31:30.491Z,3464.00
2018-07-10T08:32:27.786Z,3532.00
2018-07-10T08:33:29.477Z,3672.00
2018-07-10T08:37:31.584Z,3852.00
2018-07-10T08:38:34.532Z,3916.00
2018-07-10T08:39:33.029Z,4228.00
2018-07-10T08:42:02.567Z,6204.00
2018-07-10T08:43:24.304Z,6656.00
2018-07-10T08:44:24.306Z,6748.00
2018-07-10T08:46:37.566Z,6776.00
2018-07-10T08:47:57.572Z,6852.00
2018-07-10T08:48:35.574Z,6980.00
2018-07-10T08:49:35.574Z,7060.00
2018-07-10T08:50:38.108Z,7020.00
2018-07-10T08:51:42.076Z,7012.00
2018-07-10T08:52:59.074Z,7020.00
2018-07-10T08:53:35.564Z,6996.00
2018-07-10T08:54:42.583Z,6748.00
2018-07-10T08:58:53.872Z,6616.00
2018-07-10T09:03:05.143Z,6680.00
2018-07-10T09:03:44.665Z,6808.00
2018-07-10T09:06:16.954Z,7188.00
2018-07-10T09:08:47.268Z,7096.00
2018-07-10T09:09:48.298Z,7144.00
2018-07-10T09:10:46.338Z,7164.00
2018-07-10T09:11:46.837Z,7184.00
2018-07-10T09:13:00.837Z,7132.00
2018-07-10T09:14:09.313Z,6952.00
2018-07-10T09:14:52.836Z,6948.00
2018-07-10T09:17:18.589Z,7076.00
2018-07-10T09:18:20.559Z,7172.00
2018-07-10T09:20:52.195Z,7340.00
2018-07-10T09:22:10.529Z,7452.00
2018-07-10T09:24:22.816Z,7632.00
2018-07-10T09:25:23.273Z,7704.00
2018-07-10T09:26:42.809Z,7604.00
2018-07-10T09:27:21.412Z,7484.00
2018-07-10T09:30:14.663Z,6912.00
2018-07-10T09:30:54.669Z,6844.00
2018-07-10T09:31:53.671Z,6740.00
2018-07-10T09:36:17.880Z,7912.00
2018-07-10T09:37:21.337Z,8404.00
2018-07-10T09:37:58.867Z,8460.00
2018-07-10T09:40:49.628Z,8592.00
2018-07-10T09:41:49.636Z,8168.00
2018-07-10T09:42:32.068Z,7960.00
2018-07-10T09:43:31.136Z,7940.00
2018-07-10T09:44:28.363Z,7612.00
2018-07-10T09:46:59.960Z,6764.00
2018-07-10T09:48:23.627Z,6672.00
2018-07-10T09:49:22.553Z,6412.00
2018-07-10T09:50:18.609Z,6060.00
2018-07-10T09:51:00.362Z,5612.00
2018-07-10T09:52:23.561Z,5300.00
2018-07-10T09:54:32.731Z,4912.00
2018-07-10T09:55:32.739Z,4684.00
2018-07-10T09:56:53.737Z,4544.00
2018-07-10T09:57:35.238Z,4392.00
2018-07-10T09:58:55.236Z,4256.00
2018-07-10T09:59:33.240Z,4220.00
2018-07-10T10:00:54.239Z,4232.00
2018-07-10T10:02:00.823Z,4072.00
2018-07-10T10:02:47.739Z,4028.00
2018-07-10T10:03:33.738Z,4100.00
2018-07-10T10:04:33.739Z,4296.00
2018-07-10T10:05:33.358Z,4464.00
2018-07-10T10:06:34.241Z,4524.00
2018-07-10T10:07:56.246Z,4832.00
2018-07-10T10:08:33.727Z,5432.00
2018-07-10T10:09:34.738Z,5840.00
2018-07-10T10:10:34.748Z,6116.00
2018-07-10T10:11:55.744Z,6428.00
2018-07-10T10:12:34.797Z,6632.00
2018-07-10T10:16:37.897Z,6176.00
2018-07-10T10:17:39.365Z,6068.00
2018-07-10T10:18:37.899Z,6344.00
2018-07-10T10:19:37.497Z,6612.00
2018-07-10T10:20:40.408Z,7148.00
2018-07-10T10:21:38.406Z,8056.00
2018-07-10T10:22:52.400Z,8496.00
2018-07-10T10:25:10.205Z,7476.00
2018-07-10T10:26:10.169Z,7412.00
2018-07-10T10:27:10.170Z,7440.00
2018-07-10T10:28:10.668Z,7424.00
2018-07-10T10:32:34.513Z,8736.00
2018-07-10T10:33:18.019Z,8444.00
2018-07-10T10:34:33.951Z,7520.00
2018-07-10T10:35:14.953Z,6444.00
2018-07-10T10:36:35.021Z,5564.00
2018-07-10T10:37:15.453Z,4892.00
2018-07-10T10:38:14.018Z,4424.00
2018-07-10T10:39:14.021Z,4208.00
2018-07-10T10:41:45.770Z,4024.00
2018-07-10T10:42:45.778Z,3984.00
2018-07-10T10:43:46.285Z,3940.00
2018-07-10T10:45:07.285Z,3936.00
2018-07-10T10:47:16.967Z,3608.00
2018-07-10T10:48:31.672Z,3456.00
2018-07-10T10:49:19.123Z,3360.00
2018-07-10T10:50:39.164Z,3332.00
2018-07-10T10:51:38.371Z,3404.00
2018-07-10T10:54:10.609Z,3940.00
2018-07-10T10:54:51.134Z,4196.00
2018-07-10T10:55:49.617Z,4516.00
2018-07-10T10:56:53.592Z,4944.00
2018-07-10T10:58:13.119Z,5388.00
2018-07-10T11:00:21.625Z,6560.00
2018-07-10T11:01:23.638Z,7012.00
2018-07-10T11:02:27.716Z,7424.00
2018-07-10T11:03:22.130Z,7836.00
2018-07-10T11:08:56.413Z,9448.00
2018-07-10T11:09:55.765Z,9056.00
2018-07-10T11:10:56.420Z,8756.00
2018-07-10T11:11:56.925Z,7996.00
2018-07-10T11:14:42.305Z,6820.00
2018-07-10T11:16:59.810Z,6584.00
2018-07-10T11:21:02.745Z,6768.00
2018-07-10T11:22:23.750Z,6624.00
2018-07-10T11:23:04.759Z,6592.00
2018-07-10T11:25:55.088Z,6564.00
2018-07-10T11:26:35.017Z,6352.00
2018-07-10T11:27:35.014Z,6160.00
2018-07-10T11:28:35.018Z,6012.00
2018-07-10T11:29:35.018Z,5960.00
2018-07-10T11:32:06.057Z,6264.00
2018-07-10T11:33:06.776Z,6652.00
2018-07-10T11:34:06.981Z,7256.00
2018-07-10T11:36:59.537Z,9468.00
2018-07-10T11:37:38.524Z,10456.00
2018-07-10T11:41:42.090Z,11976.00
2018-07-10T11:42:42.112Z,12312.00
2018-07-10T11:43:42.115Z,12544.00
2018-07-10T11:45:03.599Z,12964.00
2018-07-10T11:47:13.413Z,13324.00
2018-07-10T11:48:15.920Z,12640.00
2018-07-10T11:49:14.483Z,12240.00
2018-07-10T11:50:14.489Z,11760.00
2018-07-10T11:51:35.528Z,11224.00
2018-07-10T11:52:16.977Z,10664.00
2018-07-10T11:54:46.560Z,12032.00
2018-07-10T11:55:47.237Z,12656.00
2018-07-10T11:56:47.241Z,15392.00
2018-07-10T11:57:47.742Z,14432.00
2018-07-10T12:00:19.114Z,14168.00
2018-07-10T12:06:07.574Z,13704.00
2018-07-10T12:06:53.554Z,14420.00
2018-07-10T12:07:54.544Z,12992.00
2018-07-10T12:10:25.308Z,10472.00
2018-07-10T12:11:46.239Z,9908.00
2018-07-10T12:12:26.805Z,9780.00
2018-07-10T12:13:24.938Z,10488.00
2018-07-10T12:14:25.805Z,10712.00
2018-07-10T12:15:46.807Z,9120.00
2018-07-10T12:16:25.815Z,8176.00
2018-07-10T12:17:26.307Z,9060.00
2018-07-10T12:19:57.005Z,7376.00
2018-07-10T12:22:43.258Z,5928.00
2018-07-10T12:23:31.260Z,5548.00
2018-07-10T12:26:00.201Z,5184.00
2018-07-10T12:30:04.137Z,4548.00
2018-07-10T12:31:25.209Z,4240.00
2018-07-10T12:32:03.686Z,4008.00
2018-07-10T12:33:31.709Z,3844.00
2018-07-10T12:35:36.080Z,3196.00
2018-07-10T12:36:36.093Z,2864.00
2018-07-10T12:37:36.092Z,2504.00
2018-07-10T12:38:36.590Z,2296.00
2018-07-10T12:39:57.588Z,2132.00
2018-07-10T12:40:35.953Z,1964.00
2018-07-10T12:41:57.062Z,1896.00
2018-07-10T12:42:39.088Z,1856.00
2018-07-10T12:43:38.086Z,1792.00
2018-07-10T12:44:37.093Z,1800.00
2018-07-10T12:45:38.086Z,1788.00
2018-07-10T12:46:57.705Z,1776.00
2018-07-10T12:47:58.590Z,1796.00
2018-07-10T12:48:36.943Z,1812.00
2018-07-10T12:49:39.020Z,1752.00
2018-07-10T12:51:05.092Z,1704.00
2018-07-10T12:53:30.475Z,1496.00
2018-07-10T12:54:09.484Z,1452.00
2018-07-10T12:55:23.483Z,1436.00
2018-07-10T12:56:16.056Z,1412.00
2018-07-10T12:57:15.983Z,1396.00
2018-07-10T12:58:09.365Z,1392.00
2018-07-10T13:00:40.986Z,1428.00
2018-07-10T13:01:57.614Z,1452.00
2018-07-10T13:04:35.809Z,1616.00
2018-07-10T13:05:13.377Z,1684.00
2018-07-10T13:06:15.377Z,1784.00
2018-07-10T13:07:20.875Z,1916.00
2018-07-10T13:08:36.875Z,2012.00
2018-07-10T13:09:13.877Z,2140.00
2018-07-10T13:10:13.923Z,2328.00
2018-07-10T13:11:14.379Z,2512.00
2018-07-10T13:14:24.296Z,2992.00
2018-07-10T13:15:05.275Z,3140.00
2018-07-10T13:16:03.300Z,3196.00
2018-07-10T13:17:24.798Z,3264.00
2018-07-10T13:18:03.800Z,3352.00
2018-07-10T13:19:24.799Z,3336.00
2018-07-10T13:20:03.805Z,3332.00
2018-07-10T13:21:25.298Z,3412.00
2018-07-10T13:22:03.527Z,3676.00
2018-07-10T13:23:25.299Z,4088.00
2018-07-10T13:24:04.299Z,4564.00
2018-07-10T13:25:04.804Z,4912.00
2018-07-10T13:26:04.808Z,4888.00
2018-07-10T13:27:05.846Z,4560.00
2018-07-10T13:28:04.799Z,4200.00
2018-07-10T13:29:26.300Z,4152.00
2018-07-10T13:31:36.690Z,5728.00
2018-07-10T13:32:36.700Z,6304.00
2018-07-10T13:33:36.707Z,6092.00
2018-07-10T13:34:51.197Z,5708.00
2018-07-10T13:35:58.247Z,5332.00
2018-07-10T13:36:36.561Z,5168.00
2018-07-10T13:37:37.197Z,5060.00
2018-07-10T13:38:36.798Z,4812.00
2018-07-10T13:39:40.682Z,4804.00
2018-07-10T13:40:37.697Z,5060.00
2018-07-10T13:41:37.701Z,5468.00
2018-07-10T13:42:40.134Z,5880.00
2018-07-10T13:44:01.675Z,6032.00
2018-07-10T13:44:59.201Z,5596.00
2018-07-10T13:45:38.197Z,5252.00
2018-07-10T13:46:46.130Z,5148.00
2018-07-10T13:48:01.697Z,4904.00
2018-07-10T13:50:16.212Z,4832.00
2018-07-10T13:51:11.658Z,4324.00
2018-07-10T13:52:10.219Z,4000.00
2018-07-10T13:53:31.220Z,3808.00
2018-07-10T13:57:33.646Z,3664.00
2018-07-10T13:58:12.772Z,3556.00
2018-07-10T13:59:13.413Z,3472.00
2018-07-10T14:00:13.028Z,3476.00
2018-07-10T14:01:13.913Z,3728.00
2018-07-10T14:02:13.914Z,4224.00
2018-07-10T14:03:13.920Z,4784.00
2018-07-10T14:04:28.414Z,5168.00
2018-07-10T14:05:20.414Z,5356.00
2018-07-10T14:06:35.413Z,5404.00
2018-07-10T14:07:35.415Z,5336.00
2018-07-10T14:08:35.915Z,5352.00
2018-07-10T14:09:14.846Z,5272.00
2018-07-10T14:10:35.913Z,5012.00
2018-07-10T14:11:14.911Z,4632.00
2018-07-10T14:12:38.490Z,4180.00
2018-07-10T14:13:16.885Z,3856.00
2018-07-10T14:15:46.919Z,3620.00
2018-07-10T14:16:46.927Z,3360.00
2018-07-10T14:17:46.924Z,3036.00
2018-07-10T14:22:04.136Z,2292.00
2018-07-10T14:22:49.488Z,2332.00
2018-07-10T14:23:50.141Z,2420.00
2018-07-10T14:26:42.900Z,2692.00
2018-07-10T14:27:23.839Z,3008.00
2018-07-10T14:28:23.417Z,3348.00
2018-07-10T14:29:50.839Z,3560.00
2018-07-10T14:31:59.776Z,3200.00
2018-07-10T14:32:53.782Z,2864.00
2018-07-10T14:33:53.783Z,2568.00
2018-07-10T14:34:53.436Z,2328.00
2018-07-10T14:37:25.631Z,2088.00
2018-07-10T14:38:25.642Z,2052.00
2018-07-10T14:39:25.644Z,1992.00
2018-07-10T14:40:25.242Z,1936.00
2018-07-10T14:41:26.141Z,1836.00
2018-07-10T14:42:26.149Z,1672.00
2018-07-10T14:43:25.647Z,1536.00
2018-07-10T14:44:32.644Z,1432.00
2018-07-10T14:45:47.640Z,1384.00
2018-07-10T14:46:26.644Z,1428.00
2018-07-10T14:47:26.642Z,1520.00
2018-07-10T14:48:27.149Z,1620.00
2018-07-10T14:49:27.147Z,1688.00
2018-07-10T14:50:27.099Z,1740.00
2018-07-10T14:51:27.143Z,1828.00
2018-07-10T14:52:26.749Z,1952.00
2018-07-10T14:54:58.997Z,2312.00
2018-07-10T14:56:21.937Z,2464.00
2018-07-10T14:57:26.004Z,2512.00
2018-07-10T14:58:20.504Z,2516.00
2018-07-10T14:58:58.793Z,2468.00
2018-07-10T15:00:22.537Z,2376.00
2018-07-10T15:01:00.966Z,2288.00
2018-07-10T15:02:00.009Z,2220.00
2018-07-10T15:03:02.028Z,2176.00
2018-07-10T15:04:00.008Z,2108.00
2018-07-10T15:05:00.004Z,1948.00
2018-07-10T15:07:31.785Z,1572.00
2018-07-10T15:08:31.803Z,1540.00
2018-07-10T15:09:31.800Z,1544.00
2018-07-10T15:12:02.924Z,1552.00
2018-07-10T15:13:03.566Z,1432.00
2018-07-10T15:14:24.618Z,1268.00
2018-07-10T15:15:04.144Z,1160.00
2018-07-10T15:16:27.054Z,1096.00
2018-07-10T15:17:04.054Z,1076.00
2018-07-10T15:18:04.053Z,1120.00
2018-07-10T15:19:03.782Z,1248.00
2018-07-10T15:20:05.494Z,1452.00
2018-07-10T15:21:03.854Z,1704.00
2018-07-10T15:22:04.553Z,1960.00
2018-07-10T15:23:04.557Z,2148.00
2018-07-10T15:24:26.059Z,2220.00
2018-07-10T15:25:05.138Z,2188.00
2018-07-10T15:26:04.401Z,2116.00
2018-07-10T15:27:26.055Z,2076.00
2018-07-10T15:28:25.648Z,2108.00
2018-07-10T15:30:38.386Z,2184.00
2018-07-10T15:31:36.944Z,2048.00
2018-07-10T15:32:36.945Z,1980.00
2018-07-10T15:33:37.441Z,2080.00
2018-07-10T15:34:51.441Z,2404.00
2018-07-10T15:35:58.443Z,2772.00
2018-07-10T15:36:37.443Z,2832.00
2018-07-10T15:37:37.946Z,2640.00
2018-07-10T15:38:37.168Z,2436.00
2018-07-10T15:39:37.955Z,2308.00
2018-07-10T15:40:37.943Z,2244.00
2018-07-10T15:41:37.542Z,2172.00
2018-07-10T15:42:38.449Z,2168.00
2018-07-10T15:43:38.445Z,2272.00
2018-07-10T15:44:39.883Z,2508.00
2018-07-10T15:47:10.154Z,3228.00
2018-07-10T15:48:10.161Z,3232.00